Celtic Explorer — EIGB — position and weather

sailwx.info

Track history (hours):
 
Tides and Currents Weather Stations Pressure Air Temp Water Temp Dewpoint Dewpoint Depression Visibility Wind Speed Wind Dir Waves Ship Positions

Oceanographic research ship Celtic Explorer (Ireland)

Detailed information on ship capabilities available from University of Delaware's Ocean Information Center.

Last reported at 2019-Jun-14 08:53 UTC. Time now 2019-Jun-16 01:28 UTC.
Position N 47°54' W 005°42'.

Type: . MMSI: 250487000.

Date/timePositionNaut miles runAvg speedWind from/ knotsBaromVisibWave heightAir tempDewpointWater temp
2019-Jun-14 08:53N 47°54' W 005°42'  
2019-Jun-10 16:48N 50°04' W 005°02'0 0.1
2019-Jun-10 15:44N 50°04' W 005°02'122 8.2
2019-Jun-10 00:51N 51°18' W 007°36'410.5
2019-Jun-10 00:28N 51°20' W 007°40'510.5
2019-Jun-10 00:00N 51°24' W 007°46'510.5
2019-Jun-09 23:30N 51°28' W 007°52'510.7
2019-Jun-09 23:00N 51°31' W 007°58'510.5
2019-Jun-09 22:30N 51°35' W 008°04'510.4
2019-Jun-09 22:00N 51°38' W 008°10'5 9.8
2019-Jun-09 21:30N 51°42' W 008°15'4 7.1
2019-Jun-09 21:00N 51°46' W 008°15'4 8.8
2019-Jun-09 20:30N 51°50' W 008°16'3 5.4
2019-Jun-09 20:00N 51°51' W 008°20'4 7.6
2019-Jun-09 19:30N 51°54' W 008°24'2 1.2
2019-Jun-09 17:55N 51°54' W 008°28'0 0.0
2019-Jun-09 17:07N 51°54' W 008°28'0 0.0
2019-Jun-09 16:55N 51°54' W 008°28'0 0.0
2019-Jun-09 16:28N 51°54' W 008°28'0 0.0
2019-Jun-09 15:58N 51°54' W 008°28'0 0.0
2019-Jun-09 15:19N 51°54' W 008°28'0 0.0
2019-Jun-09 14:55N 51°54' W 008°28'0 0.0
2019-Jun-09 14:25N 51°54' W 008°28'0 0.0
2019-Jun-09 13:58N 51°54' W 008°28'0 0.0
2019-Jun-09 13:28N 51°54' W 008°28'0 0.0
2019-Jun-09 12:58N 51°54' W 008°28'0 0.0
2019-Jun-09 12:28N 51°54' W 008°28'0 0.0
2019-Jun-09 11:58N 51°54' W 008°28'0 0.0
2019-Jun-09 11:28N 51°54' W 008°28'0 0.0
2019-Jun-09 10:55N 51°54' W 008°28'0 0.0
2019-Jun-09 10:28N 51°54' W 008°28'0 0.0
2019-Jun-09 09:58N 51°54' W 008°28'0 0.0
2019-Jun-09 09:28N 51°54' W 008°28'0 0.0
2019-Jun-09 08:58N 51°54' W 008°28'0 0.0
2019-Jun-09 08:28N 51°54' W 008°28'0 0.0
2019-Jun-09 07:55N 51°54' W 008°28'0 0.0
2019-Jun-09 07:28N 51°54' W 008°28'0 0.0
2019-Jun-09 06:55N 51°54' W 008°28'0 0.0
2019-Jun-09 06:25N 51°54' W 008°28'0 0.0
2019-Jun-09 05:55N 51°54' W 008°28'0 0.0
2019-Jun-09 05:22N 51°54' W 008°28'0 0.0
2019-Jun-09 04:58N 51°54' W 008°28'0 0.0
2019-Jun-09 03:58N 51°54' W 008°28'0 0.0
2019-Jun-09 03:28N 51°54' W 008°28'0 0.0
2019-Jun-09 02:55N 51°54' W 008°28'0 0.0
2019-Jun-09 02:28N 51°54' W 008°28'0 0.0
2019-Jun-09 01:58N 51°54' W 008°28'0 0.0
2019-Jun-09 01:25N 51°54' W 008°28'0 0.0
2019-Jun-09 00:58N 51°54' W 008°28'0 0.0
2019-Jun-09 00:28N 51°54' W 008°28'0 0.0
2019-Jun-08 23:58N 51°54' W 008°28'0 0.0
2019-Jun-08 23:28N 51°54' W 008°28'0 0.0
2019-Jun-08 22:58N 51°54' W 008°28'0 0.0
2019-Jun-08 22:28N 51°54' W 008°28'0 0.0
2019-Jun-08 21:58N 51°54' W 008°28'0 0.0
2019-Jun-08 21:28N 51°54' W 008°28'0 0.0
2019-Jun-08 20:58N 51°54' W 008°28'0 0.0
2019-Jun-08 20:22N 51°54' W 008°28'0 0.0
2019-Jun-08 19:58N 51°54' W 008°28'0 0.0
2019-Jun-08 19:28N 51°54' W 008°28'0 0.0
2019-Jun-08 18:58N 51°54' W 008°28'0 0.0
2019-Jun-08 18:28N 51°54' W 008°28'0 0.0
2019-Jun-08 17:58N 51°54' W 008°28'0 0.0
2019-Jun-08 17:28N 51°54' W 008°28'0 0.0
2019-Jun-08 16:58N 51°54' W 008°28'0 0.0
2019-Jun-08 16:28N 51°54' W 008°28'0 0.0
2019-Jun-08 15:58N 51°54' W 008°28'0 0.0
2019-Jun-08 15:28N 51°54' W 008°28'0 0.0
2019-Jun-08 14:58N 51°54' W 008°28'0 0.0
2019-Jun-08 14:22N 51°54' W 008°28'0 0.0
2019-Jun-08 13:58N 51°54' W 008°28'0 0.0
2019-Jun-08 13:25N 51°54' W 008°28'0 0.0
2019-Jun-08 12:58N 51°54' W 008°28'0 0.0
2019-Jun-08 12:25N 51°54' W 008°28'0 0.0
2019-Jun-08 11:58N 51°54' W 008°28'0 0.0
2019-Jun-08 11:28N 51°54' W 008°28'0 0.0
2019-Jun-08 10:58N 51°54' W 008°28'0 0.0
2019-Jun-08 10:25N 51°54' W 008°28'0 0.0
2019-Jun-08 09:58N 51°54' W 008°28'0 0.0
2019-Jun-08 09:28N 51°54' W 008°28'0 0.0
2019-Jun-08 08:58N 51°54' W 008°28'0 0.0
2019-Jun-08 08:28N 51°54' W 008°28'0 0.0
2019-Jun-08 07:58N 51°54' W 008°28'0 0.0
2019-Jun-08 07:25N 51°54' W 008°28'0 0.0
2019-Jun-08 06:52N 51°54' W 008°28'0 0.0
2019-Jun-08 06:28N 51°54' W 008°28'0 0.0
2019-Jun-08 05:58N 51°54' W 008°28'0 0.0
2019-Jun-08 05:28N 51°54' W 008°28'0 0.0
2019-Jun-08 04:52N 51°54' W 008°28'0 0.0
2019-Jun-08 04:28N 51°54' W 008°28'0 0.0
2019-Jun-08 03:58N 51°54' W 008°28'0 0.0
2019-Jun-08 03:28N 51°54' W 008°28'0 0.0
2019-Jun-08 02:58N 51°54' W 008°28'0 0.0
2019-Jun-08 02:28N 51°54' W 008°28'0 0.0
2019-Jun-08 01:58N 51°54' W 008°28'0 0.0
2019-Jun-08 01:28N 51°54' W 008°28'0 0.0
2019-Jun-08 00:52N 51°54' W 008°28'0 0.0
2019-Jun-08 00:28N 51°54' W 008°28'0 0.0
2019-Jun-07 23:58N 51°54' W 008°28'0 0.0
2019-Jun-07 23:25N 51°54' W 008°28'0 0.0
2019-Jun-07 22:49N 51°54' W 008°28'0 0.0
2019-Jun-07 22:28N 51°54' W 008°28'0 0.0
2019-Jun-07 22:01N 51°54' W 008°28'0 0.0
2019-Jun-07 21:28N 51°54' W 008°28'0 0.0
2019-Jun-07 20:58N 51°54' W 008°28'0 0.0
2019-Jun-07 20:28N 51°54' W 008°28'0 0.0
2019-Jun-07 19:58N 51°54' W 008°28'0 0.0
2019-Jun-07 19:28N 51°54' W 008°28'0 0.0
2019-Jun-07 18:58N 51°54' W 008°28'0 0.0
2019-Jun-07 18:28N 51°54' W 008°28'0 0.0
2019-Jun-07 17:58N 51°54' W 008°28'0 0.0
2019-Jun-07 17:22N 51°54' W 008°28'0 0.0
2019-Jun-07 16:52N 51°54' W 008°28'0 0.0
2019-Jun-07 16:25N 51°54' W 008°28'0 0.0
2019-Jun-07 15:49N 51°54' W 008°28'0 0.0
2019-Jun-07 15:19N 51°54' W 008°28'0 0.0
2019-Jun-07 14:58N 51°54' W 008°28'0 0.0
2019-Jun-07 14:31N 51°54' W 008°28'0 0.0
2019-Jun-07 13:49N 51°54' W 008°28'0 0.0
2019-Jun-07 13:28N 51°54' W 008°28'0 0.0
2019-Jun-07 12:52N 51°54' W 008°28'0 0.0
2019-Jun-07 12:30N 51°54' W 008°28'0 0.0
2019-Jun-07 11:58N 51°54' W 008°28'0 0.0
2019-Jun-07 11:31N 51°54' W 008°28'0 0.0
2019-Jun-07 10:55N 51°54' W 008°28'0 0.0
2019-Jun-07 10:31N 51°54' W 008°28'0 0.0
2019-Jun-07 09:55N 51°54' W 008°28'0 0.0
2019-Jun-07 09:31N 51°54' W 008°28'0 0.0
2019-Jun-07 08:52N 51°54' W 008°28'0 0.0
2019-Jun-07 08:28N 51°54' W 008°28'0 0.0
2019-Jun-07 07:28N 51°54' W 008°28'0 0.0
2019-Jun-07 06:58N 51°54' W 008°28'0 0.0
2019-Jun-07 06:28N 51°54' W 008°28'0 0.0
2019-Jun-07 05:58N 51°54' W 008°28'0 0.0
2019-Jun-07 05:31N 51°54' W 008°28'0 0.0
2019-Jun-07 04:57N 51°54' W 008°28'0 0.0
2019-Jun-07 04:27N 51°54' W 008°28'0 0.0
2019-Jun-07 04:00N 51°54' W 008°28'0 0.0
2019-Jun-07 03:30N 51°54' W 008°28'0 0.0
2019-Jun-07 03:00N 51°54' W 008°28'0 0.0
2019-Jun-07 02:31N 51°54' W 008°28'0 0.0
2019-Jun-07 01:57N 51°54' W 008°28'0 0.0
2019-Jun-07 01:31N 51°54' W 008°28'0 0.0
2019-Jun-07 00:57N 51°54' W 008°28'0 0.0
2019-Jun-07 00:31N 51°54' W 008°28'0 0.0
2019-Jun-07 00:00N 51°54' W 008°28'0 0.0
2019-Jun-06 23:31N 51°54' W 008°28'0 0.0
2019-Jun-06 23:00N 51°54' W 008°28'0 0.0
2019-Jun-06 22:30N 51°54' W 008°28'0 0.0
2019-Jun-06 22:00N 51°54' W 008°28'0 0.0
2019-Jun-06 21:30N 51°54' W 008°28'0 0.0
2019-Jun-06 21:00N 51°54' W 008°28'0 0.0
2019-Jun-06 20:30N 51°54' W 008°28'0 0.0
2019-Jun-06 19:57N 51°54' W 008°28'0 0.0
2019-Jun-06 19:30N 51°54' W 008°28'0 0.0
2019-Jun-06 19:00N 51°54' W 008°28'0 0.0
2019-Jun-06 18:27N 51°54' W 008°28'0 0.0
2019-Jun-06 18:00N 51°54' W 008°28'0 0.0
2019-Jun-06 17:30N 51°54' W 008°28'0 0.0
2019-Jun-06 17:00N 51°54' W 008°28'0 0.0
2019-Jun-06 16:31N 51°54' W 008°28'0 0.0
2019-Jun-06 16:00N 51°54' W 008°28'0 0.0
2019-Jun-06 15:31N 51°54' W 008°28'0 0.2
2019-Jun-06 15:00N 51°54' W 008°27'0 0.0
2019-Jun-06 14:30N 51°54' W 008°27'0 0.0
2019-Jun-06 14:00N 51°54' W 008°27'0 0.0
2019-Jun-06 13:30N 51°54' W 008°27'0 0.0
2019-Jun-06 13:00N 51°54' W 008°27'0 0.0
2019-Jun-06 12:30N 51°54' W 008°27'0 0.0
2019-Jun-06 11:57N 51°54' W 008°27'0 0.0
2019-Jun-06 11:30N 51°54' W 008°27'0 0.0
2019-Jun-06 11:00N 51°54' W 008°27'0 0.0
2019-Jun-06 10:30N 51°54' W 008°27'0 0.0
2019-Jun-06 10:00N 51°54' W 008°27'0 0.0
2019-Jun-06 09:27N 51°54' W 008°27'0 0.0
2019-Jun-06 09:00N 51°54' W 008°27'0 0.0
2019-Jun-06 08:30N 51°54' W 008°27'0 0.0
2019-Jun-06 08:00N 51°54' W 008°27'0 0.0
2019-Jun-06 07:30N 51°54' W 008°27'0 0.0
2019-Jun-06 06:57N 51°54' W 008°27'0 0.0
2019-Jun-06 06:27N 51°54' W 008°27'0 0.0
2019-Jun-06 06:00N 51°54' W 008°27'0 0.0
2019-Jun-06 05:30N 51°54' W 008°27'0 0.0
2019-Jun-06 05:00N 51°54' W 008°27'0 0.0
2019-Jun-06 04:30N 51°54' W 008°27'0 0.0
2019-Jun-06 04:00N 51°54' W 008°27'0 0.0
2019-Jun-06 03:30N 51°54' W 008°27'0 0.0
2019-Jun-06 03:00N 51°54' W 008°27'0 0.0
2019-Jun-06 02:30N 51°54' W 008°27'0 0.0
2019-Jun-06 02:00N 51°54' W 008°27'0 0.0
2019-Jun-06 01:30N 51°54' W 008°27'0 0.0
2019-Jun-06 01:00N 51°54' W 008°27'0 0.0
2019-Jun-06 00:30N 51°54' W 008°27'0 0.0
2019-Jun-06 00:00N 51°54' W 008°27'0 0.0
2019-Jun-05 23:24N 51°54' W 008°27'0 0.0
2019-Jun-05 22:57N 51°54' W 008°27'0 0.0
2019-Jun-05 22:30N 51°54' W 008°27'0 0.0
2019-Jun-05 21:57N 51°54' W 008°27'0 0.0
2019-Jun-05 21:30N 51°54' W 008°27'0 0.0
2019-Jun-05 21:00N 51°54' W 008°27'0 0.0
2019-Jun-05 20:30N 51°54' W 008°27'0 0.0
2019-Jun-05 19:57N 51°54' W 008°27'0 0.0
2019-Jun-05 19:30N 51°54' W 008°27'0 0.0
2019-Jun-05 19:00N 51°54' W 008°27'0 0.0
2019-Jun-05 18:30N 51°54' W 008°27'0 0.0
2019-Jun-05 18:00N 51°54' W 008°27'0 0.0
2019-Jun-05 17:30N 51°54' W 008°27'0 0.0
2019-Jun-05 17:00N 51°54' W 008°27'0 0.0
2019-Jun-05 16:30N 51°54' W 008°27'0 0.0
2019-Jun-05 16:00N 51°54' W 008°27'0 0.0
2019-Jun-05 15:30N 51°54' W 008°27'0 0.6
2019-Jun-05 15:01N 51°54' W 008°27'2 4.2
2019-Jun-05 14:31N 51°54' W 008°24'4 7.5
2019-Jun-05 14:01N 51°51' W 008°20'3 5.2
2019-Jun-05 13:30N 51°50' W 008°16'4 8.1
2019-Jun-05 13:01N 51°46' W 008°15'4 7.8
2019-Jun-05 12:31N 51°42' W 008°16'3 6.2
2019-Jun-05 12:01N 51°40' W 008°20'4 7.5
2019-Jun-05 11:31N 51°37' W 008°24'4 8.0
2019-Jun-05 11:01N 51°35' W 008°29'4 8.0
2019-Jun-05 10:31N 51°33' W 008°35'4 7.9
2019-Jun-05 10:00N 51°32' W 008°41'5 8.0
2019-Jun-05 09:25N 51°31' W 008°49'4 8.2
2019-Jun-05 08:56N 51°30' W 008°55'5 8.2
2019-Jun-05 08:21N 51°29' W 009°02'3 8.3
2019-Jun-05 07:59N 51°28' W 009°07'4 8.6
2019-Jun-05 07:28N 51°27' W 009°14'3 5.2
2019-Jun-05 06:52N 51°29' W 009°17'2 5.2
2019-Jun-05 06:29N 51°27' W 009°17'4 5.2
2019-Jun-05 05:46N 51°23' W 009°17'3 9.6
2019-Jun-05 05:28N 51°20' W 009°17'2 3.4
2019-Jun-05 04:50N 51°18' W 009°17'7 6.2
2019-Jun-05 03:44N 51°12' W 009°17'1 2.6
2019-Jun-05 03:11N 51°10' W 009°17'2 8.9
2019-Jun-05 02:59N 51°08' W 009°17'6 2.6
2019-Jun-05 00:32N 51°03' W 009°23'1 7.7
2019-Jun-05 00:22N 51°04' W 009°25'6 6.5
2019-Jun-04 23:23N 51°08' W 009°33'7 9.2
2019-Jun-04 22:39N 51°14' W 009°39'3 9.6
2019-Jun-04 22:19N 51°17' W 009°39'3 9.6
2019-Jun-04 22:00N 51°19' W 009°42'5 9.7
2019-Jun-04 21:30N 51°23' W 009°47'510.3
2019-Jun-04 21:00N 51°27' W 009°52'5 9.7
2019-Jun-04 20:30N 51°31' W 009°55'5 9.8
2019-Jun-04 20:00N 51°35' W 009°50'0 0.1
2019-Jun-04 19:31N 51°35' W 009°50'5 9.7
2019-Jun-04 19:01N 51°34' W 009°57'1 2.2
2019-Jun-04 18:31N 51°34' W 009°59'4 8.2
2019-Jun-04 18:00N 51°32' W 010°05'2 3.5
2019-Jun-04 17:31N 51°32' W 010°08'4 8.5
2019-Jun-04 17:00N 51°30' W 010°14'2 2.4
2019-Jun-04 16:19N 51°30' W 010°17'5 9.5
2019-Jun-04 15:47N 51°28' W 010°24'7 5.4
2019-Jun-04 14:27N 51°26' W 010°35'  
Track history (hours):
 
Tides and Currents Weather Stations Pressure Air Temp Water Temp Dewpoint Dewpoint Depression Visibility Wind Speed Wind Dir Waves Ship Positions

Oceanographic research ship Celtic Explorer (Ireland)

Detailed information on ship capabilities available from University of Delaware's Ocean Information Center.

Last reported at 2019-Jun-14 08:53 UTC. Time now 2019-Jun-16 01:28 UTC.
Position N 47°54' W 005°42'.

Type: . MMSI: 250487000.

Date/timePositionNaut miles runAvg speedWind from/ knotsBaromVisibWave heightAir tempDewpointWater temp
2019-Jun-14 08:53N 47°54' W 005°42'  
2019-Jun-10 16:48N 50°04' W 005°02'0 0.1
2019-Jun-10 15:44N 50°04' W 005°02'122 8.2
2019-Jun-10 00:51N 51°18' W 007°36'410.5
2019-Jun-10 00:28N 51°20' W 007°40'510.5
2019-Jun-10 00:00N 51°24' W 007°46'510.5
2019-Jun-09 23:30N 51°28' W 007°52'510.7
2019-Jun-09 23:00N 51°31' W 007°58'510.5
2019-Jun-09 22:30N 51°35' W 008°04'510.4
2019-Jun-09 22:00N 51°38' W 008°10'5 9.8
2019-Jun-09 21:30N 51°42' W 008°15'4 7.1
2019-Jun-09 21:00N 51°46' W 008°15'4 8.8
2019-Jun-09 20:30N 51°50' W 008°16'3 5.4
2019-Jun-09 20:00N 51°51' W 008°20'4 7.6
2019-Jun-09 19:30N 51°54' W 008°24'2 1.2
2019-Jun-09 17:55N 51°54' W 008°28'0 0.0
2019-Jun-09 17:07N 51°54' W 008°28'0 0.0
2019-Jun-09 16:55N 51°54' W 008°28'0 0.0
2019-Jun-09 16:28N 51°54' W 008°28'0 0.0
2019-Jun-09 15:58N 51°54' W 008°28'0 0.0
2019-Jun-09 15:19N 51°54' W 008°28'0 0.0
2019-Jun-09 14:55N 51°54' W 008°28'0 0.0
2019-Jun-09 14:25N 51°54' W 008°28'0 0.0
2019-Jun-09 13:58N 51°54' W 008°28'0 0.0
2019-Jun-09 13:28N 51°54' W 008°28'0 0.0
2019-Jun-09 12:58N 51°54' W 008°28'0 0.0
2019-Jun-09 12:28N 51°54' W 008°28'0 0.0
2019-Jun-09 11:58N 51°54' W 008°28'0 0.0
2019-Jun-09 11:28N 51°54' W 008°28'0 0.0
2019-Jun-09 10:55N 51°54' W 008°28'0 0.0
2019-Jun-09 10:28N 51°54' W 008°28'0 0.0
2019-Jun-09 09:58N 51°54' W 008°28'0 0.0
2019-Jun-09 09:28N 51°54' W 008°28'0 0.0
2019-Jun-09 08:58N 51°54' W 008°28'0 0.0
2019-Jun-09 08:28N 51°54' W 008°28'0 0.0
2019-Jun-09 07:55N 51°54' W 008°28'0 0.0
2019-Jun-09 07:28N 51°54' W 008°28'0 0.0
2019-Jun-09 06:55N 51°54' W 008°28'0 0.0
2019-Jun-09 06:25N 51°54' W 008°28'0 0.0
2019-Jun-09 05:55N 51°54' W 008°28'0 0.0
2019-Jun-09 05:22N 51°54' W 008°28'0 0.0
2019-Jun-09 04:58N 51°54' W 008°28'0 0.0
2019-Jun-09 03:58N 51°54' W 008°28'0 0.0
2019-Jun-09 03:28N 51°54' W 008°28'0 0.0
2019-Jun-09 02:55N 51°54' W 008°28'0 0.0
2019-Jun-09 02:28N 51°54' W 008°28'0 0.0
2019-Jun-09 01:58N 51°54' W 008°28'0 0.0
2019-Jun-09 01:25N 51°54' W 008°28'0 0.0
2019-Jun-09 00:58N 51°54' W 008°28'0 0.0
2019-Jun-09 00:28N 51°54' W 008°28'0 0.0
2019-Jun-08 23:58N 51°54' W 008°28'0 0.0
2019-Jun-08 23:28N 51°54' W 008°28'0 0.0
2019-Jun-08 22:58N 51°54' W 008°28'0 0.0
2019-Jun-08 22:28N 51°54' W 008°28'0 0.0
2019-Jun-08 21:58N 51°54' W 008°28'0 0.0
2019-Jun-08 21:28N 51°54' W 008°28'0 0.0
2019-Jun-08 20:58N 51°54' W 008°28'0 0.0
2019-Jun-08 20:22N 51°54' W 008°28'0 0.0
2019-Jun-08 19:58N 51°54' W 008°28'0 0.0
2019-Jun-08 19:28N 51°54' W 008°28'0 0.0
2019-Jun-08 18:58N 51°54' W 008°28'0 0.0
2019-Jun-08 18:28N 51°54' W 008°28'0 0.0
2019-Jun-08 17:58N 51°54' W 008°28'0 0.0
2019-Jun-08 17:28N 51°54' W 008°28'0 0.0
2019-Jun-08 16:58N 51°54' W 008°28'0 0.0
2019-Jun-08 16:28N 51°54' W 008°28'0 0.0
2019-Jun-08 15:58N 51°54' W 008°28'0 0.0
2019-Jun-08 15:28N 51°54' W 008°28'0 0.0
2019-Jun-08 14:58N 51°54' W 008°28'0 0.0
2019-Jun-08 14:22N 51°54' W 008°28'0 0.0
2019-Jun-08 13:58N 51°54' W 008°28'0 0.0
2019-Jun-08 13:25N 51°54' W 008°28'0 0.0
2019-Jun-08 12:58N 51°54' W 008°28'0 0.0
2019-Jun-08 12:25N 51°54' W 008°28'0 0.0
2019-Jun-08 11:58N 51°54' W 008°28'0 0.0
2019-Jun-08 11:28N 51°54' W 008°28'0 0.0
2019-Jun-08 10:58N 51°54' W 008°28'0 0.0
2019-Jun-08 10:25N 51°54' W 008°28'0 0.0
2019-Jun-08 09:58N 51°54' W 008°28'0 0.0
2019-Jun-08 09:28N 51°54' W 008°28'0 0.0
2019-Jun-08 08:58N 51°54' W 008°28'0 0.0
2019-Jun-08 08:28N 51°54' W 008°28'0 0.0
2019-Jun-08 07:58N 51°54' W 008°28'0 0.0
2019-Jun-08 07:25N 51°54' W 008°28'0 0.0
2019-Jun-08 06:52N 51°54' W 008°28'0 0.0
2019-Jun-08 06:28N 51°54' W 008°28'0 0.0
2019-Jun-08 05:58N 51°54' W 008°28'0 0.0
2019-Jun-08 05:28N 51°54' W 008°28'0 0.0
2019-Jun-08 04:52N 51°54' W 008°28'0 0.0
2019-Jun-08 04:28N 51°54' W 008°28'0 0.0
2019-Jun-08 03:58N 51°54' W 008°28'0 0.0
2019-Jun-08 03:28N 51°54' W 008°28'0 0.0
2019-Jun-08 02:58N 51°54' W 008°28'0 0.0
2019-Jun-08 02:28N 51°54' W 008°28'0 0.0
2019-Jun-08 01:58N 51°54' W 008°28'0 0.0
2019-Jun-08 01:28N 51°54' W 008°28'0 0.0
2019-Jun-08 00:52N 51°54' W 008°28'0 0.0
2019-Jun-08 00:28N 51°54' W 008°28'0 0.0
2019-Jun-07 23:58N 51°54' W 008°28'0 0.0
2019-Jun-07 23:25N 51°54' W 008°28'0 0.0
2019-Jun-07 22:49N 51°54' W 008°28'0 0.0
2019-Jun-07 22:28N 51°54' W 008°28'0 0.0
2019-Jun-07 22:01N 51°54' W 008°28'0 0.0
2019-Jun-07 21:28N 51°54' W 008°28'0 0.0
2019-Jun-07 20:58N 51°54' W 008°28'0 0.0
2019-Jun-07 20:28N 51°54' W 008°28'0 0.0
2019-Jun-07 19:58N 51°54' W 008°28'0 0.0
2019-Jun-07 19:28N 51°54' W 008°28'0 0.0
2019-Jun-07 18:58N 51°54' W 008°28'0 0.0
2019-Jun-07 18:28N 51°54' W 008°28'0 0.0
2019-Jun-07 17:58N 51°54' W 008°28'0 0.0
2019-Jun-07 17:22N 51°54' W 008°28'0 0.0
2019-Jun-07 16:52N 51°54' W 008°28'0 0.0
2019-Jun-07 16:25N 51°54' W 008°28'0 0.0
2019-Jun-07 15:49N 51°54' W 008°28'0 0.0
2019-Jun-07 15:19N 51°54' W 008°28'0 0.0
2019-Jun-07 14:58N 51°54' W 008°28'0 0.0
2019-Jun-07 14:31N 51°54' W 008°28'0 0.0
2019-Jun-07 13:49N 51°54' W 008°28'0 0.0
2019-Jun-07 13:28N 51°54' W 008°28'0 0.0
2019-Jun-07 12:52N 51°54' W 008°28'0 0.0
2019-Jun-07 12:30N 51°54' W 008°28'0 0.0
2019-Jun-07 11:58N 51°54' W 008°28'0 0.0
2019-Jun-07 11:31N 51°54' W 008°28'0 0.0
2019-Jun-07 10:55N 51°54' W 008°28'0 0.0
2019-Jun-07 10:31N 51°54' W 008°28'0 0.0
2019-Jun-07 09:55N 51°54' W 008°28'0 0.0
2019-Jun-07 09:31N 51°54' W 008°28'0 0.0
2019-Jun-07 08:52N 51°54' W 008°28'0 0.0
2019-Jun-07 08:28N 51°54' W 008°28'0 0.0
2019-Jun-07 07:28N 51°54' W 008°28'0 0.0
2019-Jun-07 06:58N 51°54' W 008°28'0 0.0
2019-Jun-07 06:28N 51°54' W 008°28'0 0.0
2019-Jun-07 05:58N 51°54' W 008°28'0 0.0
2019-Jun-07 05:31N 51°54' W 008°28'0 0.0
2019-Jun-07 04:57N 51°54' W 008°28'0 0.0
2019-Jun-07 04:27N 51°54' W 008°28'0 0.0
2019-Jun-07 04:00N 51°54' W 008°28'0 0.0
2019-Jun-07 03:30N 51°54' W 008°28'0 0.0
2019-Jun-07 03:00N 51°54' W 008°28'0 0.0
2019-Jun-07 02:31N 51°54' W 008°28'0 0.0
2019-Jun-07 01:57N 51°54' W 008°28'0 0.0
2019-Jun-07 01:31N 51°54' W 008°28'0 0.0
2019-Jun-07 00:57N 51°54' W 008°28'0 0.0
2019-Jun-07 00:31N 51°54' W 008°28'0 0.0
2019-Jun-07 00:00N 51°54' W 008°28'0 0.0
2019-Jun-06 23:31N 51°54' W 008°28'0 0.0
2019-Jun-06 23:00N 51°54' W 008°28'0 0.0
2019-Jun-06 22:30N 51°54' W 008°28'0 0.0
2019-Jun-06 22:00N 51°54' W 008°28'0 0.0
2019-Jun-06 21:30N 51°54' W 008°28'0 0.0
2019-Jun-06 21:00N 51°54' W 008°28'0 0.0
2019-Jun-06 20:30N 51°54' W 008°28'0 0.0
2019-Jun-06 19:57N 51°54' W 008°28'0 0.0
2019-Jun-06 19:30N 51°54' W 008°28'0 0.0
2019-Jun-06 19:00N 51°54' W 008°28'0 0.0
2019-Jun-06 18:27N 51°54' W 008°28'0 0.0
2019-Jun-06 18:00N 51°54' W 008°28'0 0.0
2019-Jun-06 17:30N 51°54' W 008°28'0 0.0
2019-Jun-06 17:00N 51°54' W 008°28'0 0.0
2019-Jun-06 16:31N 51°54' W 008°28'0 0.0
2019-Jun-06 16:00N 51°54' W 008°28'0 0.0
2019-Jun-06 15:31N 51°54' W 008°28'0 0.2
2019-Jun-06 15:00N 51°54' W 008°27'0 0.0
2019-Jun-06 14:30N 51°54' W 008°27'0 0.0
2019-Jun-06 14:00N 51°54' W 008°27'0 0.0
2019-Jun-06 13:30N 51°54' W 008°27'0 0.0
2019-Jun-06 13:00N 51°54' W 008°27'0 0.0
2019-Jun-06 12:30N 51°54' W 008°27'0 0.0
2019-Jun-06 11:57N 51°54' W 008°27'0 0.0
2019-Jun-06 11:30N 51°54' W 008°27'0 0.0
2019-Jun-06 11:00N 51°54' W 008°27'0 0.0
2019-Jun-06 10:30N 51°54' W 008°27'0 0.0
2019-Jun-06 10:00N 51°54' W 008°27'0 0.0
2019-Jun-06 09:27N 51°54' W 008°27'0 0.0
2019-Jun-06 09:00N 51°54' W 008°27'0 0.0
2019-Jun-06 08:30N 51°54' W 008°27'0 0.0
2019-Jun-06 08:00N 51°54' W 008°27'0 0.0
2019-Jun-06 07:30N 51°54' W 008°27'0 0.0
2019-Jun-06 06:57N 51°54' W 008°27'0 0.0
2019-Jun-06 06:27N 51°54' W 008°27'0 0.0
2019-Jun-06 06:00N 51°54' W 008°27'0 0.0
2019-Jun-06 05:30N 51°54' W 008°27'0 0.0
2019-Jun-06 05:00N 51°54' W 008°27'0 0.0
2019-Jun-06 04:30N 51°54' W 008°27'0 0.0
2019-Jun-06 04:00N 51°54' W 008°27'0 0.0
2019-Jun-06 03:30N 51°54' W 008°27'0 0.0
2019-Jun-06 03:00N 51°54' W 008°27'0 0.0
2019-Jun-06 02:30N 51°54' W 008°27'0 0.0
2019-Jun-06 02:00N 51°54' W 008°27'0 0.0
2019-Jun-06 01:30N 51°54' W 008°27'0 0.0
2019-Jun-06 01:00N 51°54' W 008°27'0 0.0
2019-Jun-06 00:30N 51°54' W 008°27'0 0.0
2019-Jun-06 00:00N 51°54' W 008°27'0 0.0
2019-Jun-05 23:24N 51°54' W 008°27'0 0.0
2019-Jun-05 22:57N 51°54' W 008°27'0 0.0
2019-Jun-05 22:30N 51°54' W 008°27'0 0.0
2019-Jun-05 21:57N 51°54' W 008°27'0 0.0
2019-Jun-05 21:30N 51°54' W 008°27'0 0.0
2019-Jun-05 21:00N 51°54' W 008°27'0 0.0
2019-Jun-05 20:30N 51°54' W 008°27'0 0.0
2019-Jun-05 19:57N 51°54' W 008°27'0 0.0
2019-Jun-05 19:30N 51°54' W 008°27'0 0.0
2019-Jun-05 19:00N 51°54' W 008°27'0 0.0
2019-Jun-05 18:30N 51°54' W 008°27'0 0.0
2019-Jun-05 18:00N 51°54' W 008°27'0 0.0
2019-Jun-05 17:30N 51°54' W 008°27'0 0.0
2019-Jun-05 17:00N 51°54' W 008°27'0 0.0
2019-Jun-05 16:30N 51°54' W 008°27'0 0.0
2019-Jun-05 16:00N 51°54' W 008°27'0 0.0
2019-Jun-05 15:30N 51°54' W 008°27'0 0.6
2019-Jun-05 15:01N 51°54' W 008°27'2 4.2
2019-Jun-05 14:31N 51°54' W 008°24'4 7.5
2019-Jun-05 14:01N 51°51' W 008°20'3 5.2
2019-Jun-05 13:30N 51°50' W 008°16'4 8.1
2019-Jun-05 13:01N 51°46' W 008°15'4 7.8
2019-Jun-05 12:31N 51°42' W 008°16'3 6.2
2019-Jun-05 12:01N 51°40' W 008°20'4 7.5
2019-Jun-05 11:31N 51°37' W 008°24'4 8.0
2019-Jun-05 11:01N 51°35' W 008°29'4 8.0
2019-Jun-05 10:31N 51°33' W 008°35'4 7.9
2019-Jun-05 10:00N 51°32' W 008°41'5 8.0
2019-Jun-05 09:25N 51°31' W 008°49'4 8.2
2019-Jun-05 08:56N 51°30' W 008°55'5 8.2
2019-Jun-05 08:21N 51°29' W 009°02'3 8.3
2019-Jun-05 07:59N 51°28' W 009°07'4 8.6
2019-Jun-05 07:28N 51°27' W 009°14'3 5.2
2019-Jun-05 06:52N 51°29' W 009°17'2 5.2
2019-Jun-05 06:29N 51°27' W 009°17'4 5.2
2019-Jun-05 05:46N 51°23' W 009°17'3 9.6
2019-Jun-05 05:28N 51°20' W 009°17'2 3.4
2019-Jun-05 04:50N 51°18' W 009°17'7 6.2
2019-Jun-05 03:44N 51°12' W 009°17'1 2.6
2019-Jun-05 03:11N 51°10' W 009°17'2 8.9
2019-Jun-05 02:59N 51°08' W 009°17'6 2.6
2019-Jun-05 00:32N 51°03' W 009°23'1 7.7
2019-Jun-05 00:22N 51°04' W 009°25'6 6.5
2019-Jun-04 23:23N 51°08' W 009°33'7 9.2
2019-Jun-04 22:39N 51°14' W 009°39'3 9.6
2019-Jun-04 22:19N 51°17' W 009°39'3 9.6
2019-Jun-04 22:00N 51°19' W 009°42'5 9.7
2019-Jun-04 21:30N 51°23' W 009°47'510.3
2019-Jun-04 21:00N 51°27' W 009°52'5 9.7
2019-Jun-04 20:30N 51°31' W 009°55'5 9.8
2019-Jun-04 20:00N 51°35' W 009°50'0 0.1
2019-Jun-04 19:31N 51°35' W 009°50'5 9.7
2019-Jun-04 19:01N 51°34' W 009°57'1 2.2
2019-Jun-04 18:31N 51°34' W 009°59'4 8.2
2019-Jun-04 18:00N 51°32' W 010°05'2 3.5
2019-Jun-04 17:31N 51°32' W 010°08'4 8.5
2019-Jun-04 17:00N 51°30' W 010°14'2 2.4
2019-Jun-04 16:19N 51°30' W 010°17'5 9.5
2019-Jun-04 15:47N 51°28' W 010°24'7 5.4
2019-Jun-04 14:27N 51°26' W 010°35'  

Dump ship's entire track history